Time;durP1;ratioP1;P1;durP2;ratioP2;P2;SDS_P1;SDS_P2;PMS_P1;PMS_P2;Temp;Humidity;BMP_temperature;BMP_pressure;BME280_temperature;BME280_humidity;BME280_pressure;Samples;Min_cycle;Max_cycle;Signal;HPM_P1;HPM_P2
2021/03/15 00:01:20;;;;;;;8.40;3.65;;;;;;;5.00;82.50;100126.13;5043619;28;20064;-85
2021/03/15 00:03:49;;;;;;;12.25;3.42;;;;;;;4.99;82.73;100139.28;5032617;28;20076;-84
2021/03/15 00:06:16;;;;;;;5.47;3.00;;;;;;;4.99;83.18;100132.28;5044665;28;20058;-84
2021/03/15 00:08:42;;;;;;;10.05;3.55;;;;;;;5.01;82.68;100119.97;5045418;28;20064;-84
2021/03/15 00:11:08;;;;;;;8.90;3.50;;;;;;;5.00;82.83;100113.00;5020068;28;20040;-84
2021/03/15 00:13:35;;;;;;;8.68;3.45;;;;;;;4.99;82.58;100116.53;5041963;28;20052;-85
2021/03/15 00:16:01;;;;;;;4.90;2.83;;;;;;;5.03;82.78;100109.44;5039741;28;20343;-85
2021/03/15 00:18:28;;;;;;;8.88;3.35;;;;;;;5.02;82.77;100100.72;5039401;28;20059;-84
2021/03/15 00:20:55;;;;;;;6.88;3.05;;;;;;;5.02;82.74;100095.47;5022783;28;20054;-85
2021/03/15 00:23:21;;;;;;;6.50;2.70;;;;;;;5.04;81.90;100093.63;5042181;28;20611;-85
2021/03/15 00:25:48;;;;;;;5.68;2.67;;;;;;;4.97;81.74;100078.13;5032508;28;20610;-85
2021/03/15 00:28:15;;;;;;;8.70;3.13;;;;;;;5.04;81.79;100091.00;5023495;28;20049;-85
2021/03/15 00:30:41;;;;;;;9.20;2.70;;;;;;;4.99;81.74;100092.91;5027894;28;20150;-86
2021/03/15 00:33:08;;;;;;;7.60;2.78;;;;;;;5.00;81.93;100086.78;5033525;28;20081;-86
2021/03/15 00:35:34;;;;;;;6.85;2.92;;;;;;;5.04;81.60;100096.25;5048462;28;20076;-83
2021/03/15 00:38:01;;;;;;;6.47;2.55;;;;;;;5.00;82.20;100099.91;5045465;28;20102;-83
2021/03/15 00:40:27;;;;;;;7.13;2.45;;;;;;;5.04;82.21;100098.00;5039952;28;20072;-85
2021/03/15 00:42:55;;;;;;;4.22;2.53;;;;;;;5.07;81.60;100108.44;5023382;28;20316;-85
2021/03/15 00:45:26;;;;;;;6.65;2.95;;;;;;;5.07;82.01;100104.03;5049265;28;20116;-85
2021/03/15 00:47:54;;;;;;;5.85;2.55;;;;;;;5.13;82.20;100109.13;5049008;28;20040;-87
2021/03/15 00:50:31;;;;;;;5.13;2.40;;;;;;;5.12;81.27;100096.91;5054159;28;20186;-84
2021/03/15 00:52:58;;;;;;;6.60;2.90;;;;;;;5.23;81.21;100113.19;5035506;28;20046;-83
2021/03/15 00:55:26;;;;;;;6.50;3.00;;;;;;;5.13;81.17;100109.13;5045908;28;20111;-85
2021/03/15 00:57:55;;;;;;;10.43;3.22;;;;;;;5.13;81.51;100100.38;5047063;28;20069;-85
2021/03/15 01:00:26;;;;;;;6.80;2.75;;;;;;;5.07;82.10;100096.16;5024165;28;20054;-86
2021/03/15 01:02:53;;;;;;;7.30;3.30;;;;;;;5.05;81.71;100090.09;5048039;28;20048;-88
2021/03/15 01:05:23;;;;;;;9.43;2.95;;;;;;;5.00;81.48;100083.28;5053915;28;20044;-85
2021/03/15 01:07:50;;;;;;;5.43;2.92;;;;;;;4.98;81.78;100080.72;5048528;28;20049;-87
2021/03/15 01:10:21;;;;;;;7.38;2.88;;;;;;;5.00;81.93;100075.41;5062394;28;20041;-87
2021/03/15 01:12:47;;;;;;;7.68;3.03;;;;;;;4.98;82.37;100072.84;5036631;28;20183;-83
2021/03/15 01:15:14;;;;;;;6.38;2.85;;;;;;;4.98;81.98;100064.09;5047669;28;20068;-84
2021/03/15 01:17:41;;;;;;;6.95;2.90;;;;;;;4.92;82.18;100047.63;5030830;28;20077;-86
2021/03/15 01:20:08;;;;;;;5.18;2.60;;;;;;;4.90;82.34;100048.56;5038674;28;20045;-84
2021/03/15 01:22:34;;;;;;;7.57;3.10;;;;;;;4.88;82.06;100040.75;5037975;28;20057;-84
2021/03/15 01:25:01;;;;;;;11.65;3.17;;;;;;;4.87;82.62;100038.19;5045097;28;20049;-86
2021/03/15 01:27:27;;;;;;;7.10;2.92;;;;;;;4.86;82.48;100032.09;5041825;28;20134;-85
2021/03/15 01:29:54;;;;;;;9.00;3.25;;;;;;;4.81;82.24;100027.88;5054973;28;20459;-83
2021/03/15 01:32:22;;;;;;;9.65;3.47;;;;;;;4.83;82.26;100028.69;5045933;28;20107;-83
2021/03/15 01:34:49;;;;;;;8.52;3.03;;;;;;;4.77;82.72;100013.97;5026372;28;20063;-83
2021/03/15 01:37:16;;;;;;;7.93;2.85;;;;;;;4.76;82.61;100014.00;5008534;28;20049;-84
2021/03/15 01:39:42;;;;;;;9.48;3.22;;;;;;;4.75;82.81;100007.03;5052297;28;20049;-86
2021/03/15 01:42:09;;;;;;;7.72;3.13;;;;;;;4.73;82.93;100000.97;5026685;28;20057;-85
2021/03/15 01:44:36;;;;;;;6.57;2.95;;;;;;;4.66;82.67;99981.09;5024099;28;20057;-84
2021/03/15 01:47:03;;;;;;;7.32;3.05;;;;;;;4.62;82.94;99989.94;5025367;28;20050;-83
2021/03/15 01:49:32;;;;;;;5.60;3.17;;;;;;;4.58;84.22;99979.53;5043380;28;20068;-85
2021/03/15 01:51:59;;;;;;;9.23;3.75;;;;;;;4.66;83.39;99976.72;5024353;28;20073;-85
2021/03/15 01:54:27;;;;;;;5.88;3.30;;;;;;;4.64;83.00;99975.03;5056855;28;20068;-88
2021/03/15 01:56:54;;;;;;;6.85;3.72;;;;;;;4.61;83.20;99972.50;5056611;28;20105;-86
2021/03/15 01:59:21;;;;;;;6.53;4.00;;;;;;;4.56;83.49;99967.41;5047553;28;20059;-83
2021/03/15 02:01:48;;;;;;;8.80;4.13;;;;;;;4.54;84.09;99966.59;5054626;28;20073;-86
2021/03/15 02:04:15;;;;;;;6.95;3.70;;;;;;;4.62;83.35;99968.97;5037522;28;20444;-87
2021/03/15 02:06:44;;;;;;;6.63;3.80;;;;;;;4.60;83.44;99963.78;5049444;28;20079;-86
2021/03/15 02:09:11;;;;;;;9.95;4.22;;;;;;;4.53;83.39;99957.88;5046057;28;20451;-88
2021/03/15 02:11:50;;;;;;;;;;;;;;;4.51;83.49;99959.66;5058704;28;20049;-85
2021/03/15 02:14:37;;;;;;;;;;;;;;;4.49;83.14;99952.75;5033261;28;19932;-83
2021/03/15 02:17:15;;;;;;;8.77;4.25;;;;;;;4.44;83.96;99939.75;5059463;28;19973;-87
2021/03/15 02:20:05;;;;;;;9.82;4.50;;;;;;;4.45;83.50;99940.63;5059014;28;20104;-84
2021/03/15 02:22:40;;;;;;;9.13;4.15;;;;;;;4.41;83.81;99936.38;5057991;28;20053;-84
2021/03/15 02:25:30;;;;;;;7.13;4.68;;;;;;;4.44;83.92;99937.16;5056118;28;20053;-85
2021/03/15 02:28:29;;;;;;;9.45;4.35;;;;;;;4.42;83.67;99938.94;5024995;28;20049;-87
2021/03/15 02:31:29;;;;;;;8.23;4.13;;;;;;;4.44;84.51;99937.16;4994564;28;20121;-87
2021/03/15 02:34:05;;;;;;;;;;;;;;;4.45;83.87;99933.63;5042104;28;20053;-83
2021/03/15 02:36:37;;;;;;;6.70;4.40;;;;;;;4.47;83.41;99925.72;5054741;28;19931;-84
2021/03/15 02:39:08;;;;;;;10.50;4.75;;;;;;;4.54;83.37;99920.25;5034495;28;20057;-84
2021/03/15 02:41:38;;;;;;;9.20;4.63;;;;;;;4.64;83.12;99909.47;5036390;28;20057;-85
2021/03/15 02:44:08;;;;;;;8.00;4.60;;;;;;;4.65;82.73;99911.19;5038764;28;20129;-86
2021/03/15 02:46:38;;;;;;;9.85;5.22;;;;;;;4.58;83.25;99906.13;5052139;28;20053;-84
2021/03/15 02:49:11;;;;;;;10.93;5.10;;;;;;;4.56;82.79;99904.47;5045747;28;20109;-85
2021/03/15 02:51:41;;;;;;;9.55;5.35;;;;;;;4.53;83.28;99892.31;5044220;28;20061;-85
2021/03/15 02:54:10;;;;;;;9.15;5.45;;;;;;;4.52;83.52;99894.97;5027616;28;20068;-85
2021/03/15 02:56:44;;;;;;;11.07;5.47;;;;;;;4.55;83.35;99884.41;5038341;28;20156;-85
2021/03/15 02:59:12;;;;;;;10.27;5.50;;;;;;;4.57;83.62;99879.94;5033491;28;20053;-86
2021/03/15 03:01:40;;;;;;;8.63;5.57;;;;;;;4.59;83.63;99875.50;5029316;28;20061;-84
2021/03/15 03:04:10;;;;;;;9.32;5.35;;;;;;;4.58;83.68;99872.03;5042559;28;20050;-85
2021/03/15 03:06:39;;;;;;;11.93;5.35;;;;;;;4.54;83.80;99867.81;5047330;28;20071;-85
2021/03/15 03:09:08;;;;;;;10.50;5.50;;;;;;;4.56;84.00;99862.53;5045179;28;20072;-86
2021/03/15 03:11:37;;;;;;;8.50;5.20;;;;;;;4.63;84.50;99860.56;5044369;28;20072;-86
2021/03/15 03:14:07;;;;;;;13.38;5.03;;;;;;;4.67;84.12;99862.19;5052973;28;20064;-85
2021/03/15 03:16:38;;;;;;;7.55;4.72;;;;;;;4.69;83.98;99861.22;5025740;28;20048;-83
2021/03/15 03:19:08;;;;;;;11.10;5.53;;;;;;;4.73;84.02;99856.72;5049213;28;20053;-86
2021/03/15 03:21:37;;;;;;;8.82;5.72;;;;;;;4.71;84.35;99861.19;5027367;28;20381;-83
2021/03/15 03:24:05;;;;;;;10.98;6.10;;;;;;;4.76;84.39;99861.88;5042401;28;20066;-83
2021/03/15 03:26:31;;;;;;;11.35;6.25;;;;;;;4.73;84.75;99851.47;5040875;28;20097;-83
2021/03/15 03:28:59;;;;;;;10.55;5.85;;;;;;;4.67;84.75;99846.44;5031745;28;20057;-82
2021/03/15 03:31:31;;;;;;;13.95;7.03;;;;;;;4.64;85.28;99841.28;5034326;28;20068;-83
2021/03/15 03:34:02;;;;;;;14.55;7.18;;;;;;;4.59;85.93;99844.06;5034899;28;20053;-82
2021/03/15 03:36:29;;;;;;;;;;;;;;;4.58;86.52;99842.34;5035350;28;20069;-82
2021/03/15 03:38:58;;;;;;;10.40;6.88;;;;;;;4.54;86.14;99840.75;5040682;28;19932;-83
2021/03/15 03:41:25;;;;;;;10.55;6.55;;;;;;;4.49;86.52;99840.00;5042386;28;20072;-84
2021/03/15 03:44:09;;;;;;;14.10;7.25;;;;;;;4.51;87.10;99839.06;5047612;28;20057;-86
2021/03/15 03:46:35;;;;;;;15.65;8.05;;;;;;;4.51;87.55;99839.06;5043226;28;20049;-84
2021/03/15 03:49:04;;;;;;;15.15;7.88;;;;;;;4.51;87.90;99831.19;5056616;28;20054;-86
2021/03/15 03:52:00;;;;;;;13.90;7.72;;;;;;;4.45;87.77;99820.03;5044743;28;20084;-85
2021/03/15 03:54:31;;;;;;;12.07;7.05;;;;;;;4.43;87.32;99816.59;5032842;28;20053;-83
2021/03/15 04:00:28;;;;;;;13.50;7.07;;;;;;;4.41;89.21;99803.53;5046914;28;20049;-84
2021/03/15 04:02:59;;;;;;;12.35;6.90;;;;;;;4.39;88.77;99794.88;5035572;28;20136;-86
2021/03/15 04:05:29;;;;;;;15.77;7.45;;;;;;;4.34;89.21;99793.31;5047942;28;20057;-87
2021/03/15 04:08:03;;;;;;;12.98;7.43;;;;;;;4.31;89.44;99790.78;5050991;28;20113;-86
2021/03/15 04:10:31;;;;;;;12.95;7.22;;;;;;;4.28;89.22;99796.97;5044389;28;20064;-84
2021/03/15 04:13:04;;;;;;;11.88;7.03;;;;;;;4.25;90.01;99797.03;5046157;28;20113;-87
2021/03/15 04:15:37;;;;;;;13.38;7.80;;;;;;;4.26;90.27;99790.03;5049340;28;20076;-86
2021/03/15 04:18:07;;;;;;;16.83;7.32;;;;;;;4.25;90.49;99789.19;5043496;28;20053;-86
2021/03/15 04:20:36;;;;;;;13.20;7.10;;;;;;;4.25;90.46;99786.56;5053964;28;20060;-84
2021/03/15 04:23:09;;;;;;;12.45;6.35;;;;;;;4.31;90.85;99789.00;5030381;28;20045;-86
2021/03/15 04:25:39;;;;;;;12.73;6.18;;;;;;;4.32;90.13;99792.50;5044607;28;20175;-86
2021/03/15 04:28:09;;;;;;;16.98;7.88;;;;;;;4.29;90.81;99787.34;5047319;28;20076;-88
2021/03/15 04:30:38;;;;;;;18.35;8.60;;;;;;;4.25;91.53;99785.75;5038577;28;20069;-85
2021/03/15 04:33:06;;;;;;;15.98;8.55;;;;;;;4.20;91.97;99784.09;5046049;28;20056;-85
2021/03/15 04:35:35;;;;;;;21.30;9.70;;;;;;;4.17;92.74;99780.72;5044149;28;20056;-85
2021/03/15 04:38:04;;;;;;;21.20;10.57;;;;;;;4.13;93.92;99773.84;5043406;28;20081;-86
2021/03/15 04:40:33;;;;;;;18.83;10.48;;;;;;;4.07;93.94;99779.28;5051851;28;20061;-84
2021/03/15 04:43:00;;;;;;;25.27;11.82;;;;;;;4.00;94.31;99777.75;5025426;28;20042;-85
2021/03/15 04:45:30;;;;;;;23.48;12.52;;;;;;;4.01;95.09;99769.00;5037941;28;20115;-84
2021/03/15 04:48:05;;;;;;;22.25;11.60;;;;;;;4.01;95.98;99776.84;5037146;28;20114;-85
2021/03/15 04:50:33;;;;;;;23.13;12.15;;;;;;;3.97;95.99;99760.34;5032134;28;20058;-85
2021/03/15 04:53:02;;;;;;;26.73;12.70;;;;;;;3.93;96.45;99766.63;5040125;28;20068;-84
2021/03/15 04:55:31;;;;;;;26.58;13.23;;;;;;;3.92;96.83;99766.66;5041790;28;20087;-83
2021/03/15 04:58:01;;;;;;;28.23;13.30;;;;;;;3.89;96.29;99762.38;5054015;28;20069;-85
2021/03/15 05:00:29;;;;;;;27.48;13.05;;;;;;;3.96;96.99;99757.78;5050789;28;20049;-86
2021/03/15 05:02:57;;;;;;;28.80;13.85;;;;;;;3.95;96.94;99750.81;5055550;28;20050;-83
2021/03/15 05:05:26;;;;;;;27.35;14.32;;;;;;;3.95;96.43;99756.06;5039751;28;20069;-83
2021/03/15 05:07:55;;;;;;;28.13;13.48;;;;;;;3.97;96.93;99751.63;5029886;28;20056;-85
2021/03/15 05:10:22;;;;;;;25.45;12.85;;;;;;;4.00;96.99;99746.31;5039868;28;20135;-84
2021/03/15 05:12:49;;;;;;;28.90;12.98;;;;;;;4.02;96.98;99753.22;5034921;28;20076;-83
2021/03/15 05:15:16;;;;;;;31.05;13.57;;;;;;;4.04;97.31;99747.94;5034332;28;20136;-84
2021/03/15 05:17:44;;;;;;;25.33;12.75;;;;;;;4.00;97.35;99747.16;5035956;28;20140;-84
2021/03/15 05:20:17;;;;;;;25.17;12.80;;;;;;;3.99;97.69;99744.59;5034714;28;20061;-84
2021/03/15 05:22:44;;;;;;;23.80;12.57;;;;;;;4.00;97.59;99738.44;5036797;28;20125;-87
2021/03/15 05:25:12;;;;;;;29.00;13.80;;;;;;;4.02;97.64;99747.97;5047913;28;20117;-82
2021/03/15 05:27:43;;;;;;;25.42;13.57;;;;;;;4.06;97.70;99741.75;5049264;28;20092;-83
2021/03/15 05:30:12;;;;;;;26.50;14.20;;;;;;;4.09;97.72;99738.19;5048027;28;20416;-84
2021/03/15 05:32:44;;;;;;;23.25;13.18;;;;;;;4.04;98.28;99730.47;5032816;28;20053;-83
2021/03/15 05:35:12;;;;;;;25.88;14.00;;;;;;;4.05;98.08;99732.19;5052560;28;20064;-85
2021/03/15 05:37:40;;;;;;;28.45;13.63;;;;;;;4.09;98.34;99736.38;5037045;28;20504;-83
2021/03/15 05:40:14;;;;;;;26.92;13.15;;;;;;;4.08;98.00;99731.22;5041765;28;20080;-84
2021/03/15 05:43:09;;;;;;;28.45;14.18;;;;;;;4.04;98.47;99730.47;5044412;28;20077;-84
2021/03/15 05:45:57;;;;;;;26.33;13.50;;;;;;;4.05;98.55;99718.22;4995037;28;20132;-85
2021/03/15 05:48:42;;;;;;;27.67;13.05;;;;;;;4.04;98.40;99719.13;5053534;28;20069;-81
2021/03/15 05:51:44;;;;;;;25.38;12.35;;;;;;;4.09;98.96;99720.66;5050896;28;20057;-81
2021/03/15 05:54:48;;;;;;;26.55;13.57;;;;;;;4.08;98.70;99726.84;5025727;28;20127;-83
2021/03/15 05:57:27;;;;;;;26.65;14.23;;;;;;;4.08;98.87;99715.50;5056591;28;20109;-82
2021/03/15 06:00:05;;;;;;;31.95;14.63;;;;;;;4.13;98.79;99714.44;5058398;28;20063;-88
2021/03/15 06:02:53;;;;;;;25.95;14.57;;;;;;;4.16;98.57;99706.47;5061278;28;20037;-87
2021/03/15 06:05:25;;;;;;;24.42;13.77;;;;;;;4.12;99.48;99706.63;5069145;28;20097;-87
2021/03/15 06:08:00;;;;;;;31.23;14.65;;;;;;;4.25;99.58;99702.69;5054828;28;20054;-79
2021/03/15 06:10:58;;;;;;;25.30;13.57;;;;;;;4.40;100.00;99706.63;5057514;28;20092;-81
2021/03/15 06:13:27;;;;;;;22.95;11.82;;;;;;;4.34;100.00;99707.66;5053647;28;20072;-82
2021/03/15 06:15:54;;;;;;;25.83;12.50;;;;;;;4.38;100.00;99709.28;5045539;28;20128;-83
2021/03/15 06:18:22;;;;;;;19.95;9.57;;;;;;;4.38;98.88;99703.19;5046358;28;20057;-85
2021/03/15 06:20:49;;;;;;;20.80;10.23;;;;;;;4.40;98.16;99710.09;5048326;28;20536;-84
2021/03/15 06:23:17;;;;;;;22.08;10.52;;;;;;;4.36;97.41;99702.38;5024936;28;20058;-82
2021/03/15 06:25:48;;;;;;;17.15;9.07;;;;;;;4.34;97.83;99697.19;5042216;28;20111;-83
2021/03/15 06:28:17;;;;;;;18.17;9.48;;;;;;;4.30;98.20;99698.19;5053333;28;20088;-84
2021/03/15 06:30:47;;;;;;;16.58;8.57;;;;;;;4.32;98.42;99696.38;5051265;28;20068;-82
2021/03/15 06:33:16;;;;;;;18.23;8.45;;;;;;;4.26;98.68;99693.06;5047000;28;20448;-87
2021/03/15 06:36:04;;;;;;;17.30;7.88;;;;;;;4.36;98.68;99702.38;5028166;28;20124;-84
2021/03/15 06:38:34;;;;;;;18.58;8.00;;;;;;;4.36;98.22;99703.22;5035753;28;20084;-84
2021/03/15 06:41:05;;;;;;;13.50;6.90;;;;;;;4.33;98.18;99716.44;5020265;28;20052;-84
2021/03/15 06:43:31;;;;;;;13.18;7.82;;;;;;;4.24;98.17;99714.13;5042874;28;20570;-83
2021/03/15 06:45:58;;;;;;;13.60;6.95;;;;;;;4.26;98.81;99717.53;5055510;28;20081;-84
2021/03/15 06:48:26;;;;;;;14.63;7.13;;;;;;;4.31;99.00;99712.13;5040509;28;20053;-84
2021/03/15 06:50:53;;;;;;;12.98;6.63;;;;;;;4.34;98.75;99712.91;5040169;28;20477;-84
2021/03/15 06:53:20;;;;;;;10.18;6.28;;;;;;;4.39;98.31;99713.63;5032468;28;20046;-81
2021/03/15 06:55:49;;;;;;;10.57;6.40;;;;;;;4.40;98.08;99714.47;5045140;28;20049;-83
2021/03/15 06:58:32;;;;;;;9.17;4.93;;;;;;;4.31;98.55;99715.63;5031322;28;20050;-85
2021/03/15 07:01:07;;;;;;;11.23;5.85;;;;;;;4.42;98.77;99725.75;5042993;28;20121;-87
2021/03/15 07:03:34;;;;;;;10.85;5.80;;;;;;;4.40;98.38;99723.19;5051180;28;20055;-89
2021/03/15 07:06:03;;;;;;;10.95;5.35;;;;;;;4.35;98.37;99719.88;5051755;28;20041;-82
2021/03/15 07:08:30;;;;;;;10.30;5.43;;;;;;;4.35;98.64;99719.88;5048159;28;20069;-82
2021/03/15 07:11:22;;;;;;;9.38;5.38;;;;;;;4.37;98.79;99727.69;5048098;28;20092;-82
2021/03/15 07:13:49;;;;;;;8.90;5.45;;;;;;;4.37;98.89;99728.53;5037176;28;20068;-85
2021/03/15 07:16:24;;;;;;;7.50;4.45;;;;;;;4.40;99.49;99727.59;5042050;28;20055;-84
2021/03/15 07:18:51;;;;;;;11.18;4.18;;;;;;;4.39;99.02;99734.59;5037788;28;20053;-84
2021/03/15 07:21:33;;;;;;;7.00;4.35;;;;;;;4.44;98.58;99744.91;5054026;28;20053;-86
2021/03/15 07:24:00;;;;;;;9.15;4.35;;;;;;;4.50;97.70;99753.44;5054659;28;20073;-82
2021/03/15 07:26:29;;;;;;;6.72;3.78;;;;;;;4.53;97.51;99752.50;5053687;28;20051;-86
2021/03/15 07:28:56;;;;;;;7.30;3.85;;;;;;;4.50;96.95;99753.44;5048828;28;20137;-83
2021/03/15 07:31:28;;;;;;;8.10;4.10;;;;;;;4.51;97.27;99754.31;5048291;28;20126;-84
2021/03/15 07:33:58;;;;;;;9.93;4.22;;;;;;;4.55;97.02;99755.94;5027017;28;20145;-83
2021/03/15 07:36:26;;;;;;;7.53;3.90;;;;;;;4.58;97.11;99761.03;5033438;28;20145;-83
2021/03/15 07:38:53;;;;;;;8.43;4.32;;;;;;;4.68;97.09;99762.47;5037395;28;20055;-85
2021/03/15 07:41:41;;;;;;;7.55;4.03;;;;;;;4.74;96.56;99757.00;5034342;28;20053;-83
2021/03/15 07:44:17;;;;;;;6.43;3.75;;;;;;;4.80;95.85;99764.69;5039414;28;20059;-83
2021/03/15 07:46:45;;;;;;;5.63;4.00;;;;;;;4.83;95.55;99759.34;5048163;28;20189;-84
2021/03/15 07:49:31;;;;;;;7.70;4.25;;;;;;;4.90;95.92;99766.09;5050860;28;20041;-83
2021/03/15 07:52:06;;;;;;;7.70;3.97;;;;;;;4.94;95.56;99767.69;5043688;28;20065;-83
2021/03/15 07:54:35;;;;;;;8.18;4.10;;;;;;;4.90;95.15;99760.84;5041039;28;20077;-84
2021/03/15 07:57:26;;;;;;;6.55;4.40;;;;;;;4.87;95.00;99771.44;5048719;28;20056;-83
2021/03/15 07:59:59;;;;;;;7.43;3.92;;;;;;;4.85;95.21;99768.03;5040628;28;20087;-86
2021/03/15 08:02:29;;;;;;;6.13;4.18;;;;;;;4.86;95.56;99776.75;5053101;28;20041;-83
2021/03/15 08:05:00;;;;;;;5.95;4.10;;;;;;;4.83;95.61;99772.47;5054851;28;20037;-85
2021/03/15 08:07:30;;;;;;;8.85;4.50;;;;;;;4.83;95.74;99774.22;5053307;28;20049;-85
2021/03/15 08:10:01;;;;;;;6.18;4.15;;;;;;;4.81;95.96;99781.28;5051152;28;20113;-82
2021/03/15 08:12:37;;;;;;;7.35;4.70;;;;;;;4.88;96.46;99782.78;5053447;28;20321;-81
2021/03/15 08:15:04;;;;;;;6.80;4.53;;;;;;;4.90;97.07;99789.69;5053500;28;20088;-82
2021/03/15 08:17:32;;;;;;;7.88;4.90;;;;;;;4.88;96.93;99781.00;5053738;28;20060;-84
2021/03/15 08:20:03;;;;;;;8.77;4.88;;;;;;;5.09;96.91;99800.44;5034507;28;20069;-83
2021/03/15 08:22:33;;;;;;;8.13;5.15;;;;;;;5.25;95.32;99799.00;5051367;28;20069;-83
2021/03/15 08:25:01;;;;;;;8.10;4.25;;;;;;;5.39;94.62;99801.13;5049072;28;20065;-85
2021/03/15 08:27:30;;;;;;;6.60;4.35;;;;;;;5.51;93.54;99803.31;5040965;28;20061;-84
2021/03/15 08:30:00;;;;;;;6.80;4.70;;;;;;;5.62;92.10;99808.19;5041551;28;20455;-86
2021/03/15 08:32:30;;;;;;;7.05;4.85;;;;;;;5.73;92.29;99807.81;5042674;28;20563;-85
2021/03/15 08:34:57;;;;;;;6.05;4.32;;;;;;;5.90;92.17;99821.22;5043034;28;20104;-83
2021/03/15 08:37:59;;;;;;;6.78;4.35;;;;;;;6.04;91.76;99820.69;5043065;28;20132;-86
2021/03/15 08:40:43;;;;;;;7.80;4.30;;;;;;;6.13;91.68;99815.97;5044458;28;20053;-85
2021/03/15 08:43:38;;;;;;;4.55;3.63;;;;;;;6.07;91.73;99816.19;5034318;28;20056;-85
2021/03/15 08:46:14;;;;;;;9.40;3.85;;;;;;;6.14;91.02;99822.91;5020889;28;20064;-87
2021/03/15 08:48:41;;;;;;;5.20;3.40;;;;;;;6.14;90.41;99833.41;5044877;28;20049;-84
2021/03/15 08:51:33;;;;;;;6.30;3.90;;;;;;;6.15;90.62;99829.03;5025878;28;20057;-85
2021/03/15 08:54:06;;;;;;;6.57;3.55;;;;;;;6.24;90.32;99831.31;5041181;28;20144;-87
2021/03/15 08:56:40;;;;;;;4.78;2.92;;;;;;;6.31;89.81;99831.00;5043275;28;20513;-86
2021/03/15 08:59:13;;;;;;;4.93;3.47;;;;;;;6.42;90.54;99828.00;5046601;28;20050;-85
2021/03/15 09:01:54;;;;;;;5.95;3.28;;;;;;;6.59;89.36;99837.84;5046550;28;20045;-87
2021/03/15 09:04:31;;;;;;;4.53;3.35;;;;;;;6.75;89.47;99848.63;5046757;28;20140;-85
2021/03/15 09:07:40;;;;;;;3.78;3.15;;;;;;;6.90;87.48;99848.00;4950401;28;20197;-83
2021/03/15 09:10:41;;;;;;;4.93;2.92;;;;;;;7.17;88.43;99849.50;4977597;28;20053;-83
2021/03/15 09:13:10;;;;;;;4.25;2.63;;;;;;;7.37;89.50;99848.66;4966081;28;20087;-83
2021/03/15 09:15:41;;;;;;;3.03;2.70;;;;;;;7.63;88.04;99855.44;4980437;28;20074;-86
2021/03/15 09:18:26;;;;;;;;;;;;;;;7.77;82.96;99862.72;4975027;28;20062;-88
2021/03/15 09:20:53;;;;;;;3.60;1.80;;;;;;;7.81;82.62;99857.25;4975999;28;19922;-82
2021/03/15 09:23:33;;;;;;;3.92;1.90;;;;;;;7.86;83.06;99884.28;4978739;28;20055;-85
2021/03/15 09:26:25;;;;;;;1.83;1.40;;;;;;;7.79;84.26;99881.97;4982505;28;20061;-87
2021/03/15 09:28:53;;;;;;;2.58;0.77;;;;;;;7.69;80.21;99890.28;4973957;28;20059;-89
2021/03/15 09:31:21;;;;;;;1.13;0.63;;;;;;;7.51;81.93;99892.84;4978386;28;20054;-85
2021/03/15 09:33:58;;;;;;;3.22;1.75;;;;;;;7.46;82.43;99895.66;4978230;28;20118;-82
2021/03/15 09:36:30;;;;;;;1.90;0.80;;;;;;;7.68;81.80;99887.72;4984380;28;20395;-84
2021/03/15 09:38:57;;;;;;;1.23;0.65;;;;;;;7.76;81.69;99890.88;4966747;28;20069;-83
2021/03/15 09:41:25;;;;;;;1.60;0.70;;;;;;;7.84;80.69;99895.81;4978618;28;20065;-84
2021/03/15 09:43:53;;;;;;;0.80;0.73;;;;;;;7.76;79.93;99901.41;4976461;28;20051;-84
2021/03/15 09:46:27;;;;;;;1.17;0.50;;;;;;;7.64;76.91;99902.81;4981955;28;20146;-83
2021/03/15 09:48:54;;;;;;;2.15;0.70;;;;;;;7.29;80.35;99906.06;4980285;28;20164;-83
2021/03/15 09:51:28;;;;;;;1.48;0.60;;;;;;;7.29;80.03;99914.81;4986558;28;20134;-84
2021/03/15 09:53:55;;;;;;;0.68;0.60;;;;;;;7.37;81.17;99925.91;4971003;28;20110;-89
2021/03/15 09:56:26;;;;;;;1.35;0.73;;;;;;;7.39;80.74;99921.44;4988221;28;20215;-87
2021/03/15 09:58:52;;;;;;;1.17;0.90;;;;;;;7.38;81.85;99926.75;5041163;28;20049;-90
2021/03/15 10:01:22;;;;;;;0.68;0.68;;;;;;;7.39;80.32;99936.38;5030506;28;20058;-85
2021/03/15 10:03:52;;;;;;;2.47;0.90;;;;;;;7.38;80.60;99932.03;5045744;28;20122;-85
2021/03/15 10:06:23;;;;;;;2.85;1.20;;;;;;;7.40;78.85;99936.28;5038666;28;20494;-86
2021/03/15 10:08:51;;;;;;;1.25;0.98;;;;;;;7.47;79.08;99939.53;5016249;28;20067;-85
2021/03/15 10:11:18;;;;;;;2.28;1.60;;;;;;;7.57;82.05;99940.84;5052614;28;20055;-84
2021/03/15 10:14:00;;;;;;;4.20;1.50;;;;;;;7.76;77.27;99940.94;5044351;28;20129;-85
2021/03/15 10:16:27;;;;;;;1.90;1.27;;;;;;;7.95;73.12;99939.22;5047833;28;20057;-85
2021/03/15 10:19:03;;;;;;;2.78;1.55;;;;;;;8.07;73.34;99943.09;5043258;28;20053;-85
2021/03/15 10:21:32;;;;;;;1.42;1.33;;;;;;;8.14;75.47;99936.66;5045628;28;20057;-85
2021/03/15 10:23:59;;;;;;;2.35;1.40;;;;;;;8.12;74.82;99942.91;5045407;28;20061;-87
2021/03/15 10:26:28;;;;;;;1.77;1.30;;;;;;;7.90;71.01;99946.47;5046419;28;20050;-86
2021/03/15 10:28:55;;;;;;;3.53;1.45;;;;;;;7.75;75.87;99961.16;5050330;28;20050;-86
2021/03/15 10:31:22;;;;;;;3.65;1.45;;;;;;;7.50;73.98;99954.38;5052561;28;20053;-85
2021/03/15 10:33:52;;;;;;;2.45;1.50;;;;;;;7.47;70.66;99963.25;5046835;28;20112;-85
2021/03/15 10:36:24;;;;;;;2.78;1.80;;;;;;;7.37;73.04;99954.88;5024239;28;20063;-86
2021/03/15 10:38:51;;;;;;;4.18;1.40;;;;;;;7.46;69.30;99971.22;5044519;28;20061;-83
2021/03/15 10:41:18;;;;;;;5.30;1.40;;;;;;;7.54;68.37;99974.41;5040751;28;20064;-84
2021/03/15 10:43:48;;;;;;;4.78;1.60;;;;;;;7.66;67.21;99973.88;5035856;28;20535;-84
2021/03/15 10:46:29;;;;;;;2.88;1.20;;;;;;;7.94;65.20;99963.88;5034743;28;20059;-83
2021/03/15 10:48:59;;;;;;;2.38;1.15;;;;;;;8.38;63.04;99963.75;5036406;28;20072;-85
2021/03/15 10:51:26;;;;;;;2.58;1.25;;;;;;;8.54;61.53;99956.84;5037597;28;20060;-85
2021/03/15 10:54:10;;;;;;;2.47;1.20;;;;;;;8.54;60.16;99964.75;5037123;28;20049;-84
2021/03/15 10:57:08;;;;;;;4.57;1.50;;;;;;;8.53;60.83;99960.41;5036935;28;20061;-85
2021/03/15 10:59:35;;;;;;;3.08;1.48;;;;;;;8.63;61.14;99966.16;5034732;28;20053;-83
2021/03/15 11:02:02;;;;;;;3.13;1.33;;;;;;;8.88;59.80;99952.66;5035685;28;20471;-83
2021/03/15 11:04:36;;;;;;;1.90;0.93;;;;;;;9.03;60.24;99957.22;5036942;28;20076;-84
2021/03/15 11:07:24;;;;;;;2.83;1.30;;;;;;;8.91;58.17;99953.38;5033822;28;20128;-85
2021/03/15 11:09:55;;;;;;;2.58;1.30;;;;;;;8.85;56.60;99963.34;5035500;28;20045;-85
2021/03/15 11:12:33;;;;;;;4.10;1.30;;;;;;;8.69;56.28;99955.28;5029664;28;20050;-86
2021/03/15 11:15:36;;;;;;;2.60;1.15;;;;;;;8.60;56.80;99955.72;5040906;28;20112;-85
2021/03/15 11:18:10;;;;;;;4.63;1.15;;;;;;;8.65;57.42;99945.81;5044589;28;20121;-85
2021/03/15 11:20:47;;;;;;;1.85;1.13;;;;;;;8.65;57.56;99946.69;5048728;28;20057;-85
2021/03/15 11:23:34;;;;;;;1.88;1.25;;;;;;;8.93;56.97;99945.38;5037487;28;20405;-84
2021/03/15 11:26:13;;;;;;;4.55;1.30;;;;;;;9.05;55.73;99952.72;5031184;28;20046;-84
2021/03/15 11:28:41;;;;;;;2.70;1.08;;;;;;;9.23;55.18;99946.56;5035179;28;20462;-85
2021/03/15 11:31:17;;;;;;;4.13;1.40;;;;;;;9.26;55.31;99942.91;5038340;28;20132;-84
2021/03/15 11:33:59;;;;;;;3.22;1.55;;;;;;;9.25;55.29;99952.63;5041392;28;20452;-85
2021/03/15 11:36:29;;;;;;;4.28;1.30;;;;;;;9.28;54.77;99952.47;5045252;28;20049;-86
2021/03/15 11:39:06;;;;;;;3.45;1.10;;;;;;;9.31;53.99;99957.59;5044505;28;20065;-85
2021/03/15 11:41:38;;;;;;;3.55;1.33;;;;;;;9.36;54.02;99962.66;5047545;28;20065;-86
2021/03/15 11:44:05;;;;;;;7.60;1.35;;;;;;;9.38;54.28;99958.16;5043909;28;20065;-86
2021/03/15 11:46:33;;;;;;;3.78;1.25;;;;;;;9.40;53.96;99962.44;5040634;28;20091;-86
2021/03/15 11:48:59;;;;;;;3.20;1.60;;;;;;;9.51;52.82;99961.91;5042259;28;20049;-86
2021/03/15 11:51:27;;;;;;;2.53;1.40;;;;;;;9.55;53.63;99960.81;5044257;28;20077;-87
2021/03/15 11:53:54;;;;;;;3.30;1.80;;;;;;;9.56;53.43;99964.31;5056756;28;20049;-87
2021/03/15 11:56:21;;;;;;;5.50;2.13;;;;;;;9.54;53.62;99963.53;5043346;28;20077;-85
2021/03/15 11:58:48;;;;;;;3.13;2.03;;;;;;;9.40;54.25;99953.66;5040901;28;20128;-85
2021/03/15 12:01:14;;;;;;;2.60;2.13;;;;;;;9.24;54.70;99950.91;5041964;28;20046;-85
2021/03/15 12:03:43;;;;;;;5.28;2.05;;;;;;;9.21;54.86;99968.69;5039531;28;20053;-84